sensor_id;sensor_type;location;lat;lon;timestamp;temperature;humidity
21676;DHT22;10999;51.332;9.458;2023-02-28T00:01:04;0.00;53.20
21676;DHT22;10999;51.332;9.458;2023-02-28T00:03:31;0.00;53.30
21676;DHT22;10999;51.332;9.458;2023-02-28T00:06:05;0.00;53.40
21676;DHT22;10999;51.332;9.458;2023-02-28T00:08:32;0.00;53.40
21676;DHT22;10999;51.332;9.458;2023-02-28T00:11:04;-0.10;53.20
21676;DHT22;10999;51.332;9.458;2023-02-28T00:13:34;-0.10;53.00
21676;DHT22;10999;51.332;9.458;2023-02-28T00:16:07;0.00;51.80
21676;DHT22;10999;51.332;9.458;2023-02-28T00:18:36;-0.10;49.30
21676;DHT22;10999;51.332;9.458;2023-02-28T00:21:03;0.00;48.90
21676;DHT22;10999;51.332;9.458;2023-02-28T00:23:30;0.00;48.30
21676;DHT22;10999;51.332;9.458;2023-02-28T00:25:57;0.00;48.00
21676;DHT22;10999;51.332;9.458;2023-02-28T00:28:24;0.00;47.90
21676;DHT22;10999;51.332;9.458;2023-02-28T00:30:51;0.00;47.30
21676;DHT22;10999;51.332;9.458;2023-02-28T00:33:18;0.00;47.30
21676;DHT22;10999;51.332;9.458;2023-02-28T00:35:45;-0.10;47.00
21676;DHT22;10999;51.332;9.458;2023-02-28T00:38:15;-0.10;47.50
21676;DHT22;10999;51.332;9.458;2023-02-28T00:40:42;-0.10;47.20
21676;DHT22;10999;51.332;9.458;2023-02-28T00:43:09;-0.10;47.30
21676;DHT22;10999;51.332;9.458;2023-02-28T00:45:35;-0.10;47.40
21676;DHT22;10999;51.332;9.458;2023-02-28T00:48:02;-0.10;47.70
21676;DHT22;10999;51.332;9.458;2023-02-28T00:50:29;-0.20;47.40
21676;DHT22;10999;51.332;9.458;2023-02-28T00:52:56;-0.20;47.40
21676;DHT22;10999;51.332;9.458;2023-02-28T00:55:22;-0.20;47.60
21676;DHT22;10999;51.332;9.458;2023-02-28T00:57:49;-0.20;47.10
21676;DHT22;10999;51.332;9.458;2023-02-28T01:00:16;-0.20;47.00
21676;DHT22;10999;51.332;9.458;2023-02-28T01:02:43;-0.20;46.30
21676;DHT22;10999;51.332;9.458;2023-02-28T01:05:09;-0.30;46.60
21676;DHT22;10999;51.332;9.458;2023-02-28T01:07:36;-0.30;47.10
21676;DHT22;10999;51.332;9.458;2023-02-28T01:10:03;-0.30;47.00
21676;DHT22;10999;51.332;9.458;2023-02-28T01:12:30;-0.30;46.80
21676;DHT22;10999;51.332;9.458;2023-02-28T01:14:56;-0.30;47.10
21676;DHT22;10999;51.332;9.458;2023-02-28T01:17:23;-0.30;47.30
21676;DHT22;10999;51.332;9.458;2023-02-28T01:19:53;-0.40;47.40
21676;DHT22;10999;51.332;9.458;2023-02-28T01:22:20;-0.40;47.60
21676;DHT22;10999;51.332;9.458;2023-02-28T01:24:47;-0.40;47.70
21676;DHT22;10999;51.332;9.458;2023-02-28T01:27:14;-0.40;47.50
21676;DHT22;10999;51.332;9.458;2023-02-28T01:29:41;-0.40;47.20
21676;DHT22;10999;51.332;9.458;2023-02-28T01:32:07;-0.40;47.50
21676;DHT22;10999;51.332;9.458;2023-02-28T01:34:34;-0.40;47.30
21676;DHT22;10999;51.332;9.458;2023-02-28T01:37:00;-0.40;47.20
21676;DHT22;10999;51.332;9.458;2023-02-28T01:39:27;-0.40;47.00
21676;DHT22;10999;51.332;9.458;2023-02-28T01:41:54;-0.40;47.20
21676;DHT22;10999;51.332;9.458;2023-02-28T01:47:34;-0.50;47.20
21676;DHT22;10999;51.332;9.458;2023-02-28T01:50:03;-0.50;47.00
21676;DHT22;10999;51.332;9.458;2023-02-28T01:52:31;-0.50;47.40
21676;DHT22;10999;51.332;9.458;2023-02-28T01:55:00;-0.50;47.70
21676;DHT22;10999;51.332;9.458;2023-02-28T01:57:32;-0.60;47.70
21676;DHT22;10999;51.332;9.458;2023-02-28T02:00:15;-0.60;47.80
21676;DHT22;10999;51.332;9.458;2023-02-28T02:02:44;-0.60;47.70
21676;DHT22;10999;51.332;9.458;2023-02-28T02:05:21;-0.60;47.40
21676;DHT22;10999;51.332;9.458;2023-02-28T02:07:55;-0.50;47.40
21676;DHT22;10999;51.332;9.458;2023-02-28T02:10:33;-0.50;47.80
21676;DHT22;10999;51.332;9.458;2023-02-28T02:13:34;-0.60;46.90
21676;DHT22;10999;51.332;9.458;2023-02-28T02:16:27;-0.60;47.20
21676;DHT22;10999;51.332;9.458;2023-02-28T02:38:46;-0.60;47.40
21676;DHT22;10999;51.332;9.458;2023-02-28T02:42:09;-0.70;47.30
21676;DHT22;10999;51.332;9.458;2023-02-28T02:46:47;-0.60;46.30
21676;DHT22;10999;51.332;9.458;2023-02-28T02:49:23;-0.60;46.40
21676;DHT22;10999;51.332;9.458;2023-02-28T02:51:51;-0.60;46.50
21676;DHT22;10999;51.332;9.458;2023-02-28T02:54:31;-0.60;46.20
21676;DHT22;10999;51.332;9.458;2023-02-28T02:57:04;-0.50;46.20
21676;DHT22;10999;51.332;9.458;2023-02-28T02:59:33;-0.50;46.40
21676;DHT22;10999;51.332;9.458;2023-02-28T03:02:04;-0.50;46.60
21676;DHT22;10999;51.332;9.458;2023-02-28T03:04:40;-0.50;46.30
21676;DHT22;10999;51.332;9.458;2023-02-28T03:07:08;-0.50;46.40
21676;DHT22;10999;51.332;9.458;2023-02-28T03:09:35;-0.50;46.40
21676;DHT22;10999;51.332;9.458;2023-02-28T03:12:02;-0.50;46.20
21676;DHT22;10999;51.332;9.458;2023-02-28T03:17:27;-0.50;45.70
21676;DHT22;10999;51.332;9.458;2023-02-28T03:25:35;-0.50;46.20
21676;DHT22;10999;51.332;9.458;2023-02-28T03:28:17;-0.50;45.60
21676;DHT22;10999;51.332;9.458;2023-02-28T03:33:30;-0.50;45.60
21676;DHT22;10999;51.332;9.458;2023-02-28T03:36:23;-0.50;45.60
21676;DHT22;10999;51.332;9.458;2023-02-28T03:39:02;-0.50;45.30
21676;DHT22;10999;51.332;9.458;2023-02-28T03:41:44;-0.50;45.50
21676;DHT22;10999;51.332;9.458;2023-02-28T03:44:18;-0.50;45.50
21676;DHT22;10999;51.332;9.458;2023-02-28T03:46:57;-0.50;45.10
21676;DHT22;10999;51.332;9.458;2023-02-28T03:49:34;-0.50;44.90
21676;DHT22;10999;51.332;9.458;2023-02-28T03:52:03;-0.50;44.90
21676;DHT22;10999;51.332;9.458;2023-02-28T03:54:35;-0.50;45.20
21676;DHT22;10999;51.332;9.458;2023-02-28T03:57:26;-0.50;45.30
21676;DHT22;10999;51.332;9.458;2023-02-28T04:00:21;-0.50;45.80
21676;DHT22;10999;51.332;9.458;2023-02-28T04:02:53;-0.50;45.60
21676;DHT22;10999;51.332;9.458;2023-02-28T04:05:21;-0.50;45.70
21676;DHT22;10999;51.332;9.458;2023-02-28T04:07:48;-0.50;45.50
21676;DHT22;10999;51.332;9.458;2023-02-28T04:10:16;-0.50;44.80
21676;DHT22;10999;51.332;9.458;2023-02-28T04:12:43;-0.50;44.20
21676;DHT22;10999;51.332;9.458;2023-02-28T04:15:09;-0.50;43.40
21676;DHT22;10999;51.332;9.458;2023-02-28T04:17:37;-0.40;43.00
21676;DHT22;10999;51.332;9.458;2023-02-28T04:20:04;-0.50;42.60
21676;DHT22;10999;51.332;9.458;2023-02-28T04:22:36;-0.50;43.00
21676;DHT22;10999;51.332;9.458;2023-02-28T04:25:04;-0.50;42.90
21676;DHT22;10999;51.332;9.458;2023-02-28T04:27:32;-0.50;42.90
21676;DHT22;10999;51.332;9.458;2023-02-28T04:29:58;-0.50;43.10
21676;DHT22;10999;51.332;9.458;2023-02-28T04:32:25;-0.50;43.40
21676;DHT22;10999;51.332;9.458;2023-02-28T04:34:52;-0.60;43.60
21676;DHT22;10999;51.332;9.458;2023-02-28T04:37:19;-0.60;43.80
21676;DHT22;10999;51.332;9.458;2023-02-28T04:39:45;-0.60;43.90
21676;DHT22;10999;51.332;9.458;2023-02-28T04:42:13;-0.70;44.60
21676;DHT22;10999;51.332;9.458;2023-02-28T04:44:40;-0.60;44.90
21676;DHT22;10999;51.332;9.458;2023-02-28T04:47:06;-0.60;43.80
21676;DHT22;10999;51.332;9.458;2023-02-28T04:49:33;-0.70;43.80
21676;DHT22;10999;51.332;9.458;2023-02-28T04:52:00;-0.70;44.00
21676;DHT22;10999;51.332;9.458;2023-02-28T04:54:26;-0.70;44.10
21676;DHT22;10999;51.332;9.458;2023-02-28T04:56:54;-0.80;44.70
21676;DHT22;10999;51.332;9.458;2023-02-28T04:59:21;-0.80;44.80
21676;DHT22;10999;51.332;9.458;2023-02-28T05:01:49;-0.90;45.00
21676;DHT22;10999;51.332;9.458;2023-02-28T05:04:16;-0.90;45.00
21676;DHT22;10999;51.332;9.458;2023-02-28T05:06:43;-0.90;45.40
21676;DHT22;10999;51.332;9.458;2023-02-28T05:09:09;-1.00;45.60
21676;DHT22;10999;51.332;9.458;2023-02-28T05:11:39;-1.00;45.90
21676;DHT22;10999;51.332;9.458;2023-02-28T05:14:12;-1.00;46.00
21676;DHT22;10999;51.332;9.458;2023-02-28T05:16:39;-1.00;46.30
21676;DHT22;10999;51.332;9.458;2023-02-28T05:19:06;-1.00;46.50
21676;DHT22;10999;51.332;9.458;2023-02-28T05:24:02;-1.00;47.00
21676;DHT22;10999;51.332;9.458;2023-02-28T05:26:30;-0.90;47.20
21676;DHT22;10999;51.332;9.458;2023-02-28T05:28:56;-0.90;47.10
21676;DHT22;10999;51.332;9.458;2023-02-28T05:31:23;-0.90;47.20
21676;DHT22;10999;51.332;9.458;2023-02-28T05:33:50;-0.80;47.10
21676;DHT22;10999;51.332;9.458;2023-02-28T05:36:18;-0.80;46.90
21676;DHT22;10999;51.332;9.458;2023-02-28T05:38:49;-0.80;47.00
21676;DHT22;10999;51.332;9.458;2023-02-28T05:41:17;-0.80;47.10
21676;DHT22;10999;51.332;9.458;2023-02-28T05:43:43;-0.80;46.80
21676;DHT22;10999;51.332;9.458;2023-02-28T05:46:10;-0.70;45.80
21676;DHT22;10999;51.332;9.458;2023-02-28T05:48:39;-0.60;45.50
21676;DHT22;10999;51.332;9.458;2023-02-28T05:51:07;-0.50;46.20
21676;DHT22;10999;51.332;9.458;2023-02-28T05:53:34;-0.40;46.60
21676;DHT22;10999;51.332;9.458;2023-02-28T05:56:01;-0.30;47.80
21676;DHT22;10999;51.332;9.458;2023-02-28T05:58:28;-0.30;48.40
21676;DHT22;10999;51.332;9.458;2023-02-28T06:00:58;-0.20;48.90
21676;DHT22;10999;51.332;9.458;2023-02-28T06:03:26;-0.20;50.40
21676;DHT22;10999;51.332;9.458;2023-02-28T06:05:53;-0.10;51.20
21676;DHT22;10999;51.332;9.458;2023-02-28T06:08:20;-0.20;51.60
21676;DHT22;10999;51.332;9.458;2023-02-28T06:10:47;-0.20;52.00
21676;DHT22;10999;51.332;9.458;2023-02-28T06:13:14;-0.10;52.90
21676;DHT22;10999;51.332;9.458;2023-02-28T06:15:41;-0.10;53.20
21676;DHT22;10999;51.332;9.458;2023-02-28T06:18:08;-0.20;53.20
21676;DHT22;10999;51.332;9.458;2023-02-28T06:20:35;-0.20;53.50
21676;DHT22;10999;51.332;9.458;2023-02-28T06:23:02;-0.20;53.50
21676;DHT22;10999;51.332;9.458;2023-02-28T06:25:29;-0.20;53.80
21676;DHT22;10999;51.332;9.458;2023-02-28T06:27:56;-0.20;54.00
21676;DHT22;10999;51.332;9.458;2023-02-28T06:30:23;-0.20;54.20
21676;DHT22;10999;51.332;9.458;2023-02-28T06:32:51;-0.20;54.40
21676;DHT22;10999;51.332;9.458;2023-02-28T06:35:18;-0.20;54.70
21676;DHT22;10999;51.332;9.458;2023-02-28T06:37:45;-0.20;54.80
21676;DHT22;10999;51.332;9.458;2023-02-28T06:40:13;-0.10;54.70
21676;DHT22;10999;51.332;9.458;2023-02-28T06:42:40;-0.10;54.80
21676;DHT22;10999;51.332;9.458;2023-02-28T06:45:08;-0.10;54.60
21676;DHT22;10999;51.332;9.458;2023-02-28T06:47:37;-0.10;54.30
21676;DHT22;10999;51.332;9.458;2023-02-28T06:50:05;0.00;54.20
21676;DHT22;10999;51.332;9.458;2023-02-28T06:52:32;0.00;54.10
21676;DHT22;10999;51.332;9.458;2023-02-28T06:54:59;0.00;54.20
21676;DHT22;10999;51.332;9.458;2023-02-28T06:57:29;0.00;54.50
21676;DHT22;10999;51.332;9.458;2023-02-28T07:00:00;0.00;54.80
21676;DHT22;10999;51.332;9.458;2023-02-28T07:02:27;0.00;54.90
21676;DHT22;10999;51.332;9.458;2023-02-28T07:04:54;0.00;55.10
21676;DHT22;10999;51.332;9.458;2023-02-28T07:07:21;0.10;55.40
21676;DHT22;10999;51.332;9.458;2023-02-28T07:09:48;0.10;55.70
21676;DHT22;10999;51.332;9.458;2023-02-28T07:12:15;0.10;55.60
21676;DHT22;10999;51.332;9.458;2023-02-28T07:14:41;0.20;56.20
21676;DHT22;10999;51.332;9.458;2023-02-28T07:17:09;0.30;55.00
21676;DHT22;10999;51.332;9.458;2023-02-28T07:19:39;0.30;53.50
21676;DHT22;10999;51.332;9.458;2023-02-28T07:22:07;0.40;52.10
21676;DHT22;10999;51.332;9.458;2023-02-28T07:24:33;0.50;52.20
21676;DHT22;10999;51.332;9.458;2023-02-28T07:27:00;0.60;52.60
21676;DHT22;10999;51.332;9.458;2023-02-28T07:29:28;0.70;51.60
21676;DHT22;10999;51.332;9.458;2023-02-28T07:31:55;0.80;50.00
21676;DHT22;10999;51.332;9.458;2023-02-28T07:34:22;0.90;50.50
21676;DHT22;10999;51.332;9.458;2023-02-28T07:36:53;1.00;48.90
21676;DHT22;10999;51.332;9.458;2023-02-28T07:39:21;1.20;48.50
21676;DHT22;10999;51.332;9.458;2023-02-28T07:41:48;1.30;46.30
21676;DHT22;10999;51.332;9.458;2023-02-28T07:44:15;1.40;44.50
21676;DHT22;10999;51.332;9.458;2023-02-28T07:46:42;1.50;42.10
21676;DHT22;10999;51.332;9.458;2023-02-28T07:49:08;1.70;41.00
21676;DHT22;10999;51.332;9.458;2023-02-28T07:51:35;2.00;39.00
21676;DHT22;10999;51.332;9.458;2023-02-28T07:54:02;2.50;38.10
21676;DHT22;10999;51.332;9.458;2023-02-28T07:56:29;2.70;33.70
21676;DHT22;10999;51.332;9.458;2023-02-28T07:58:57;2.80;33.20
21676;DHT22;10999;51.332;9.458;2023-02-28T08:01:23;2.90;31.60
21676;DHT22;10999;51.332;9.458;2023-02-28T08:03:50;3.00;33.40
21676;DHT22;10999;51.332;9.458;2023-02-28T08:06:20;3.30;31.80
21676;DHT22;10999;51.332;9.458;2023-02-28T08:08:47;3.50;32.60
21676;DHT22;10999;51.332;9.458;2023-02-28T08:11:15;3.80;31.80
21676;DHT22;10999;51.332;9.458;2023-02-28T08:13:43;3.80;29.70
21676;DHT22;10999;51.332;9.458;2023-02-28T08:16:12;4.10;29.00
21676;DHT22;10999;51.332;9.458;2023-02-28T08:18:41;4.60;27.30
21676;DHT22;10999;51.332;9.458;2023-02-28T08:21:09;5.20;26.70
21676;DHT22;10999;51.332;9.458;2023-02-28T08:23:36;5.70;24.40
21676;DHT22;10999;51.332;9.458;2023-02-28T08:26:04;6.10;23.80
21676;DHT22;10999;51.332;9.458;2023-02-28T08:28:30;6.40;22.80
21676;DHT22;10999;51.332;9.458;2023-02-28T08:30:58;6.50;21.10
21676;DHT22;10999;51.332;9.458;2023-02-28T08:33:27;6.80;19.10
21676;DHT22;10999;51.332;9.458;2023-02-28T08:35:55;6.80;18.00
21676;DHT22;10999;51.332;9.458;2023-02-28T08:38:22;6.60;17.10
21676;DHT22;10999;51.332;9.458;2023-02-28T08:40:50;6.70;17.70
21676;DHT22;10999;51.332;9.458;2023-02-28T08:43:16;6.70;17.60
21676;DHT22;10999;51.332;9.458;2023-02-28T08:45:43;6.80;17.20
21676;DHT22;10999;51.332;9.458;2023-02-28T08:48:10;6.80;15.80
21676;DHT22;10999;51.332;9.458;2023-02-28T08:50:37;6.60;14.20
21676;DHT22;10999;51.332;9.458;2023-02-28T08:53:03;6.70;14.20
21676;DHT22;10999;51.332;9.458;2023-02-28T08:55:30;6.90;15.10
21676;DHT22;10999;51.332;9.458;2023-02-28T08:57:57;6.90;14.20
21676;DHT22;10999;51.332;9.458;2023-02-28T09:00:24;6.70;14.10
21676;DHT22;10999;51.332;9.458;2023-02-28T09:02:51;6.80;13.20
21676;DHT22;10999;51.332;9.458;2023-02-28T09:05:18;6.60;13.40
21676;DHT22;10999;51.332;9.458;2023-02-28T09:07:45;6.90;14.40
21676;DHT22;10999;51.332;9.458;2023-02-28T09:10:11;7.50;14.40
21676;DHT22;10999;51.332;9.458;2023-02-28T09:12:41;7.80;11.80
21676;DHT22;10999;51.332;9.458;2023-02-28T09:15:08;7.80;11.30
21676;DHT22;10999;51.332;9.458;2023-02-28T09:17:35;8.20;12.80
21676;DHT22;10999;51.332;9.458;2023-02-28T09:20:02;8.50;10.00
21676;DHT22;10999;51.332;9.458;2023-02-28T09:22:28;8.60;9.30
21676;DHT22;10999;51.332;9.458;2023-02-28T09:24:55;8.50;9.10
21676;DHT22;10999;51.332;9.458;2023-02-28T09:27:22;7.80;8.70
21676;DHT22;10999;51.332;9.458;2023-02-28T09:29:49;7.50;11.80
21676;DHT22;10999;51.332;9.458;2023-02-28T09:32:15;7.40;11.20
21676;DHT22;10999;51.332;9.458;2023-02-28T09:34:43;7.40;11.00
21676;DHT22;10999;51.332;9.458;2023-02-28T09:37:10;7.40;10.50
21676;DHT22;10999;51.332;9.458;2023-02-28T09:39:37;7.60;10.90
21676;DHT22;10999;51.332;9.458;2023-02-28T09:42:04;8.10;10.10
21676;DHT22;10999;51.332;9.458;2023-02-28T09:47:01;7.50;9.90
21676;DHT22;10999;51.332;9.458;2023-02-28T09:49:41;7.30;10.40
21676;DHT22;10999;51.332;9.458;2023-02-28T09:52:38;7.40;12.10
21676;DHT22;10999;51.332;9.458;2023-02-28T09:57:46;6.90;10.50
21676;DHT22;10999;51.332;9.458;2023-02-28T10:00:24;6.50;11.60
21676;DHT22;10999;51.332;9.458;2023-02-28T10:03:18;6.10;11.80
21676;DHT22;10999;51.332;9.458;2023-02-28T10:06:14;5.60;12.20
21676;DHT22;10999;51.332;9.458;2023-02-28T10:09:04;5.10;13.70
21676;DHT22;10999;51.332;9.458;2023-02-28T10:11:33;4.90;14.50
21676;DHT22;10999;51.332;9.458;2023-02-28T10:14:06;4.60;14.80
21676;DHT22;10999;51.332;9.458;2023-02-28T10:16:42;4.80;15.80
21676;DHT22;10999;51.332;9.458;2023-02-28T10:21:50;5.50;14.70
21676;DHT22;10999;51.332;9.458;2023-02-28T10:24:28;5.70;14.30
21676;DHT22;10999;51.332;9.458;2023-02-28T10:27:20;5.70;13.90
21676;DHT22;10999;51.332;9.458;2023-02-28T10:29:49;5.70;13.40
21676;DHT22;10999;51.332;9.458;2023-02-28T10:32:18;5.70;13.20
21676;DHT22;10999;51.332;9.458;2023-02-28T10:35:10;5.70;14.00
21676;DHT22;10999;51.332;9.458;2023-02-28T10:37:42;5.70;13.90
21676;DHT22;10999;51.332;9.458;2023-02-28T10:42:56;5.50;14.10
21676;DHT22;10999;51.332;9.458;2023-02-28T10:45:24;5.60;13.90
21676;DHT22;10999;51.332;9.458;2023-02-28T10:48:04;5.60;14.70
21676;DHT22;10999;51.332;9.458;2023-02-28T10:50:42;5.50;13.90
21676;DHT22;10999;51.332;9.458;2023-02-28T11:01:38;4.50;16.70
21676;DHT22;10999;51.332;9.458;2023-02-28T11:09:34;4.00;16.80
21676;DHT22;10999;51.332;9.458;2023-02-28T11:12:07;3.90;17.20
21676;DHT22;10999;51.332;9.458;2023-02-28T11:14:49;4.00;17.40
21676;DHT22;10999;51.332;9.458;2023-02-28T11:17:21;4.40;17.90
21676;DHT22;10999;51.332;9.458;2023-02-28T11:22:46;4.60;16.90
21676;DHT22;10999;51.332;9.458;2023-02-28T11:25:27;4.70;16.70
21676;DHT22;10999;51.332;9.458;2023-02-28T11:28:04;4.80;15.50
21676;DHT22;10999;51.332;9.458;2023-02-28T11:30:40;4.80;15.80
21676;DHT22;10999;51.332;9.458;2023-02-28T11:33:30;4.90;15.60
21676;DHT22;10999;51.332;9.458;2023-02-28T11:36:02;4.90;15.60
21676;DHT22;10999;51.332;9.458;2023-02-28T11:38:32;4.90;15.00
21676;DHT22;10999;51.332;9.458;2023-02-28T11:41:18;4.90;16.10
21676;DHT22;10999;51.332;9.458;2023-02-28T11:43:59;5.00;15.40
21676;DHT22;10999;51.332;9.458;2023-02-28T11:46:50;4.90;15.10
21676;DHT22;10999;51.332;9.458;2023-02-28T11:49:32;4.90;15.20
21676;DHT22;10999;51.332;9.458;2023-02-28T11:54:59;4.90;15.80
21676;DHT22;10999;51.332;9.458;2023-02-28T12:00:26;5.10;16.90
21676;DHT22;10999;51.332;9.458;2023-02-28T12:10:27;5.60;16.10
21676;DHT22;10999;51.332;9.458;2023-02-28T12:13:00;5.50;15.30
21676;DHT22;10999;51.332;9.458;2023-02-28T12:18:38;5.60;15.80
21676;DHT22;10999;51.332;9.458;2023-02-28T12:24:25;5.60;15.80
21676;DHT22;10999;51.332;9.458;2023-02-28T12:26:57;5.70;15.90
21676;DHT22;10999;51.332;9.458;2023-02-28T12:29:34;5.80;17.30
21676;DHT22;10999;51.332;9.458;2023-02-28T12:32:12;5.90;15.70
21676;DHT22;10999;51.332;9.458;2023-02-28T12:35:04;5.80;15.40
21676;DHT22;10999;51.332;9.458;2023-02-28T12:40:19;5.90;16.10
21676;DHT22;10999;51.332;9.458;2023-02-28T12:42:52;5.80;15.50
21676;DHT22;10999;51.332;9.458;2023-02-28T12:45:22;5.70;14.90
21676;DHT22;10999;51.332;9.458;2023-02-28T12:48:01;5.50;15.20
21676;DHT22;10999;51.332;9.458;2023-02-28T12:50:29;5.30;15.30
21676;DHT22;10999;51.332;9.458;2023-02-28T12:53:03;5.20;16.00
21676;DHT22;10999;51.332;9.458;2023-02-28T13:00:46;5.50;16.30
21676;DHT22;10999;51.332;9.458;2023-02-28T13:06:16;5.60;17.20
21676;DHT22;10999;51.332;9.458;2023-02-28T13:09:13;5.60;15.50
21676;DHT22;10999;51.332;9.458;2023-02-28T13:11:49;5.60;16.30
21676;DHT22;10999;51.332;9.458;2023-02-28T13:14:29;5.70;16.60
21676;DHT22;10999;51.332;9.458;2023-02-28T13:19:39;5.50;15.70
21676;DHT22;10999;51.332;9.458;2023-02-28T13:24:56;5.40;16.40
21676;DHT22;10999;51.332;9.458;2023-02-28T13:27:40;5.40;16.70
21676;DHT22;10999;51.332;9.458;2023-02-28T13:36:23;5.70;16.50
21676;DHT22;10999;51.332;9.458;2023-02-28T13:39:44;5.80;16.10
21676;DHT22;10999;51.332;9.458;2023-02-28T13:41:45;5.70;15.50
21676;DHT22;10999;51.332;9.458;2023-02-28T13:44:24;5.60;15.80
21676;DHT22;10999;51.332;9.458;2023-02-28T13:47:19;5.70;17.10
21676;DHT22;10999;51.332;9.458;2023-02-28T13:49:40;5.60;15.70
21676;DHT22;10999;51.332;9.458;2023-02-28T14:00:57;5.80;16.20
21676;DHT22;10999;51.332;9.458;2023-02-28T14:03:48;5.70;15.70
21676;DHT22;10999;51.332;9.458;2023-02-28T14:06:31;5.70;16.80
21676;DHT22;10999;51.332;9.458;2023-02-28T14:09:03;5.70;16.30
21676;DHT22;10999;51.332;9.458;2023-02-28T14:11:39;5.60;16.80
21676;DHT22;10999;51.332;9.458;2023-02-28T14:14:08;5.70;16.80
21676;DHT22;10999;51.332;9.458;2023-02-28T14:16:47;5.80;16.60
21676;DHT22;10999;51.332;9.458;2023-02-28T14:19:23;5.70;16.10
21676;DHT22;10999;51.332;9.458;2023-02-28T14:22:16;5.70;16.70
21676;DHT22;10999;51.332;9.458;2023-02-28T14:27:41;5.80;16.70
21676;DHT22;10999;51.332;9.458;2023-02-28T14:36:10;5.70;17.50
21676;DHT22;10999;51.332;9.458;2023-02-28T14:38:42;5.70;17.70
21676;DHT22;10999;51.332;9.458;2023-02-28T14:43:56;5.90;17.20
21676;DHT22;10999;51.332;9.458;2023-02-28T14:46:40;5.80;17.10
21676;DHT22;10999;51.332;9.458;2023-02-28T14:49:32;5.80;17.30
21676;DHT22;10999;51.332;9.458;2023-02-28T14:54:41;5.60;17.50
21676;DHT22;10999;51.332;9.458;2023-02-28T14:57:28;5.50;17.80
21676;DHT22;10999;51.332;9.458;2023-02-28T15:00:00;5.60;18.50
21676;DHT22;10999;51.332;9.458;2023-02-28T15:02:31;5.50;18.50
21676;DHT22;10999;51.332;9.458;2023-02-28T15:07:49;5.40;18.50
21676;DHT22;10999;51.332;9.458;2023-02-28T15:10:27;5.40;18.80
21676;DHT22;10999;51.332;9.458;2023-02-28T15:13:11;5.40;19.10
21676;DHT22;10999;51.332;9.458;2023-02-28T15:18:36;5.30;19.20
21676;DHT22;10999;51.332;9.458;2023-02-28T15:21:13;5.20;19.10
21676;DHT22;10999;51.332;9.458;2023-02-28T15:23:48;5.20;20.00
21676;DHT22;10999;51.332;9.458;2023-02-28T15:26:19;5.10;19.50
21676;DHT22;10999;51.332;9.458;2023-02-28T15:28:56;5.00;20.00
21676;DHT22;10999;51.332;9.458;2023-02-28T15:31:45;4.90;20.40
21676;DHT22;10999;51.332;9.458;2023-02-28T15:37:38;4.70;20.70
21676;DHT22;10999;51.332;9.458;2023-02-28T15:40:14;4.70;20.90
21676;DHT22;10999;51.332;9.458;2023-02-28T15:42:41;4.60;22.00
21676;DHT22;10999;51.332;9.458;2023-02-28T15:45:40;4.50;21.10
21676;DHT22;10999;51.332;9.458;2023-02-28T15:48:31;4.40;21.70
21676;DHT22;10999;51.332;9.458;2023-02-28T15:51:23;4.40;22.20
21676;DHT22;10999;51.332;9.458;2023-02-28T15:54:00;4.40;22.60
21676;DHT22;10999;51.332;9.458;2023-02-28T15:56:31;4.30;23.10
21676;DHT22;10999;51.332;9.458;2023-02-28T15:59:00;4.20;23.10
21676;DHT22;10999;51.332;9.458;2023-02-28T16:01:30;4.20;22.80
21676;DHT22;10999;51.332;9.458;2023-02-28T16:04:02;4.20;22.90
21676;DHT22;10999;51.332;9.458;2023-02-28T16:09:02;4.10;23.30
21676;DHT22;10999;51.332;9.458;2023-02-28T16:11:29;4.10;23.50
21676;DHT22;10999;51.332;9.458;2023-02-28T16:13:57;4.00;23.80
21676;DHT22;10999;51.332;9.458;2023-02-28T16:16:26;4.00;23.50
21676;DHT22;10999;51.332;9.458;2023-02-28T16:18:53;3.90;23.50
21676;DHT22;10999;51.332;9.458;2023-02-28T16:21:20;3.90;24.10
21676;DHT22;10999;51.332;9.458;2023-02-28T16:23:46;3.90;24.10
21676;DHT22;10999;51.332;9.458;2023-02-28T16:26:23;3.80;24.20
21676;DHT22;10999;51.332;9.458;2023-02-28T16:28:51;3.80;24.70
21676;DHT22;10999;51.332;9.458;2023-02-28T16:31:18;3.70;24.90
21676;DHT22;10999;51.332;9.458;2023-02-28T16:33:45;3.70;25.20
21676;DHT22;10999;51.332;9.458;2023-02-28T16:36:14;3.60;25.70
21676;DHT22;10999;51.332;9.458;2023-02-28T16:38:41;3.60;26.10
21676;DHT22;10999;51.332;9.458;2023-02-28T16:41:12;3.50;26.10
21676;DHT22;10999;51.332;9.458;2023-02-28T16:43:45;3.40;26.60
21676;DHT22;10999;51.332;9.458;2023-02-28T16:46:12;3.30;26.80
21676;DHT22;10999;51.332;9.458;2023-02-28T16:48:40;3.40;26.70
21676;DHT22;10999;51.332;9.458;2023-02-28T16:51:16;3.30;27.10
21676;DHT22;10999;51.332;9.458;2023-02-28T16:53:44;3.20;27.50
21676;DHT22;10999;51.332;9.458;2023-02-28T16:58:42;3.10;28.20
21676;DHT22;10999;51.332;9.458;2023-02-28T17:01:09;3.00;28.60
21676;DHT22;10999;51.332;9.458;2023-02-28T17:03:36;3.00;28.90
21676;DHT22;10999;51.332;9.458;2023-02-28T17:06:04;2.90;29.20
21676;DHT22;10999;51.332;9.458;2023-02-28T17:08:31;2.90;29.50
21676;DHT22;10999;51.332;9.458;2023-02-28T17:10:59;2.80;29.30
21676;DHT22;10999;51.332;9.458;2023-02-28T17:13:25;2.80;29.70
21676;DHT22;10999;51.332;9.458;2023-02-28T17:15:52;2.80;29.80
21676;DHT22;10999;51.332;9.458;2023-02-28T17:18:20;2.80;29.90
21676;DHT22;10999;51.332;9.458;2023-02-28T17:20:48;2.60;30.50
21676;DHT22;10999;51.332;9.458;2023-02-28T17:23:15;2.60;31.50
21676;DHT22;10999;51.332;9.458;2023-02-28T17:25:42;2.50;31.60
21676;DHT22;10999;51.332;9.458;2023-02-28T17:28:23;2.50;31.90
21676;DHT22;10999;51.332;9.458;2023-02-28T17:30:49;2.50;32.20
21676;DHT22;10999;51.332;9.458;2023-02-28T17:33:16;2.50;32.50
21676;DHT22;10999;51.332;9.458;2023-02-28T17:35:43;2.40;32.50
21676;DHT22;10999;51.332;9.458;2023-02-28T17:38:16;2.30;33.00
21676;DHT22;10999;51.332;9.458;2023-02-28T17:40:43;2.30;33.40
21676;DHT22;10999;51.332;9.458;2023-02-28T17:43:10;2.20;33.50
21676;DHT22;10999;51.332;9.458;2023-02-28T17:45:37;2.20;33.80
21676;DHT22;10999;51.332;9.458;2023-02-28T17:48:04;2.10;34.30
21676;DHT22;10999;51.332;9.458;2023-02-28T17:50:31;2.10;34.30
21676;DHT22;10999;51.332;9.458;2023-02-28T17:52:58;2.00;34.60
21676;DHT22;10999;51.332;9.458;2023-02-28T17:55:25;1.90;35.00
21676;DHT22;10999;51.332;9.458;2023-02-28T17:57:51;1.90;35.50
21676;DHT22;10999;51.332;9.458;2023-02-28T18:00:19;1.80;35.80
21676;DHT22;10999;51.332;9.458;2023-02-28T18:02:45;1.80;36.50
21676;DHT22;10999;51.332;9.458;2023-02-28T18:05:12;1.70;36.80
21676;DHT22;10999;51.332;9.458;2023-02-28T18:07:39;1.70;36.90
21676;DHT22;10999;51.332;9.458;2023-02-28T18:10:16;1.60;37.00
21676;DHT22;10999;51.332;9.458;2023-02-28T18:12:47;1.50;37.20
21676;DHT22;10999;51.332;9.458;2023-02-28T18:15:14;1.50;37.50
21676;DHT22;10999;51.332;9.458;2023-02-28T18:17:41;1.40;37.80
21676;DHT22;10999;51.332;9.458;2023-02-28T18:20:12;1.40;38.00
21676;DHT22;10999;51.332;9.458;2023-02-28T18:22:40;1.30;38.30
21676;DHT22;10999;51.332;9.458;2023-02-28T18:25:09;1.20;38.40
21676;DHT22;10999;51.332;9.458;2023-02-28T18:27:40;1.20;38.80
21676;DHT22;10999;51.332;9.458;2023-02-28T18:30:22;1.10;39.60